x

Northern Hawaii One - 245nm Ne Of Honolulu Hi (51000) Wave Buoy

12:50pm - Fri 17th Nov 2017 All times are HST. -10 hours from GMT.

  • Sig Wave height 6.6ft
  • Swell Direction
  • Peak Period 11s
  • Average Period 8s
  • Wind
    2mph, 4mph gusts
  • Sea Temp 78°f
  • Air Temp 74°f
  • Sea Pressure 1013.1mb
  • Northern Hawaii One - 245nm Ne Of Honolulu Hi
  • Northern Hawaii One - 245nm Ne Of Honolulu Hi

More Historic Weather Station data

Upgrade to MSW Pro to gain access to the past 30 days of data for over 8000 Wavebouys and Weather Stations around the globe.

Join

Comparision Forecast

View Surf forecast
   
Fri 11/17 12:50pm 6.5ft 11s 8s 2 4 mph 1013.1mb 78f 74f
11:50am 7.5ft 10s 8s 4 7 mph 1014mb 78f 74f
10:50am 7ft 10s 8s 4 7 mph 1014.5mb 78f 74f
9:50am 7.5ft 11s 8s 4 7 mph 1015.3mb 78f 74f
8:50am 7.5ft 12s 8s 4 7 mph 1015.4mb 77f 74f
7:50am 8ft 12s 8s 4 7 mph 1015mb 77f 74f
6:50am 7ft 12s 8s 2 4 mph 1014.7mb 77f 72f
5:50am 8ft 12s 8s 9 11 mph 1014.3mb 77f 72f
4:50am 7.5ft 9s 8s 7 9 mph 1014.2mb 77f 73f
3:50am 8ft 11s 8s 7 9 mph 1014.6mb 77f 73f
2:50am 8ft 11s 7s 7 11 mph 1015mb 77f 73f
1:50am 8ft 9s 7s 9 11 mph 1015.5mb 77f 73f
12:50am 8ft 11s 8s 11 13 mph 1015.9mb 77f 73f
Thu 11/16 11:50pm 8ft 11s 7s 11 13 mph 1016.4mb 77f 71f
10:50pm 8.5ft 9s 7s 13 18 mph 1017.3mb 77f 72f
9:50pm 8ft 11s 7s 11 13 mph 1017.4mb 77f 73f
8:50pm 8ft 11s 7s 11 13 mph 1017.4mb 77f 72f
7:50pm 8ft 10s 7s 13 18 mph 1017.3mb 77f 73f
6:50pm 7.5ft 10s 6s 18 25 mph 1016.9mb 77f 72f
5:50pm 8ft 9s 7s 20 25 mph 1016.6mb 77f 73f
4:50pm 8ft 9s 7s 20 25 mph 1016.5mb 77f 69f
3:50pm 8ft 9s 6s 20 25 mph 1016mb 77f 71f
2:50pm 8.5ft 10s 7s 18 25 mph 1016mb 78f 73f
1:50pm 8ft 9s 7s 9 13 mph 1016.4mb 78f 72f
12:50pm 9ft 10s 7s 18 22 mph 1016.8mb 78f 73f
11:50am 7ft 10s 6s 18 22 mph 1017.8mb 78f 73f
10:50am 7.5ft 10s 6s 18 20 mph 1018.6mb 77f 73f
9:50am 8ft 10s 7s 18 22 mph 1018.9mb 77f 74f
8:50am 9ft 10s 7s 20 25 mph 1018.6mb 77f 73f
7:50am 8ft 10s 7s 18 20 mph 1018.3mb 77f 74f
6:50am 8ft 9s 7s 18 20 mph 1017.8mb 77f 74f
5:50am 8.5ft 11s 7s 18 22 mph 1017.1mb 77f 74f
4:50am 8.5ft 10s 7s 18 20 mph 1017.2mb 77f 74f
3:50am 9ft 8s 7s 18 22 mph 1017.3mb 77f 74f
2:50am 9ft 11s 7s 20 25 mph 1017.4mb 77f 74f
1:50am 9ft 10s 7s 20 25 mph 1017.8mb 78f 74f
12:50am 9.5ft 11s 7s 18 22 mph 1018.4mb 78f 73f
Wed 11/15 11:50pm 9ft 11s 7s 22 27 mph 1018.6mb 78f 73f
10:50pm 10ft 9s 7s 20 27 mph 1019.2mb 78f 74f
9:50pm 10ft 11s 7s 20 25 mph 1019.1mb 78f 75f
8:50pm 10ft 10s 7s 20 25 mph 1019mb 78f 75f
7:50pm 10.5ft 10s 7s 20 25 mph 1018.7mb 78f 75f
6:50pm 10ft 9s 7s 20 25 mph 1018.2mb 78f 75f
5:50pm 10ft 9s 7s 22 27 mph 1017.5mb 78f 75f
4:50pm 10ft 9s 7s 22 29 mph 1017.1mb 78f 75f
3:50pm 11ft 10s 7s 20 25 mph 1016.9mb 78f 75f
2:50pm 10ft 11s 7s 22 27 mph 1016.7mb 78f 75f
1:50pm 9.5ft 8s 7s 20 25 mph 1016.8mb 78f 75f
12:50pm 12ft 9s 7s 20 25 mph 1017.4mb 78f 75f
11:50am 11.5ft 11s 7s 20 25 mph 1018.3mb 78f 75f
10:50am 11.5ft 11s 7s 25 29 mph 1018.8mb 78f 75f
9:50am 11ft 11s 7s 25 29 mph 1019mb 78f 75f
8:50am 11ft 10s 7s 20 27 mph 1019mb 78f 74f
7:50am 11ft 11s 7s 25 29 mph 1018.3mb 78f 75f
6:50am 10ft 10s 7s 25 29 mph 1017.9mb 78f 75f
5:50am 10.5ft 12s 7s 22 31 mph 1017.4mb 78f 74f
4:50am 11ft 10s 7s 20 25 mph 1017.2mb 78f 74f
3:50am 10.5ft 11s 8s 20 25 mph 1017mb 78f 75f
2:50am 12ft 10s 8s 20 25 mph 1017.1mb 78f 75f
1:50am 10.5ft 10s 7s 18 20 mph 1017.5mb 78f 75f
12:50am 10ft 10s 7s 20 25 mph 1017.6mb 78f 75f
Tue 11/14 11:50pm 10.5ft 10s 7s 18 22 mph 1017.8mb 78f 75f
10:50pm 9.5ft 9s 7s 20 22 mph 1018mb 78f 75f
9:50pm 9.5ft 12s 7s 20 25 mph 1017.9mb 78f 75f
8:50pm 9ft 12s 7s 18 22 mph 1017.6mb 78f 75f
7:50pm 9ft 9s 7s 18 22 mph 1017.3mb 78f 75f
6:50pm 9.5ft 9s 7s 18 22 mph 1016.7mb 78f 75f
5:50pm 9ft 10s 7s 20 22 mph 1016.1mb 78f 75f
4:50pm 8.5ft 11s 7s 20 22 mph 1015.5mb 78f 75f
3:50pm 9ft 12s 7s 20 25 mph 1015.2mb 78f 75f
2:50pm 9ft 12s 7s 18 22 mph 1015.2mb 78f 72f
1:50pm 10ft 9s 7s 18 22 mph 1015.3mb 78f 73f
12:50pm 9ft 13s 7s 22 29 mph 1015.8mb 78f 71f
11:50am 9ft 13s 7s 25 29 mph 1016.3mb 78f 73f
10:50am 8.5ft 13s 8s 16 20 mph 1016.9mb 78f 75f
9:50am 8ft 9s 7s 13 16 mph 1017.6mb 78f 74f
8:50am 8.5ft 13s 7s 16 18 mph 1017.5mb 78f 73f
7:50am 7.5ft 13s 8s 16 18 mph 1016.8mb 78f 74f
6:50am 7ft 9s 7s 9 11 mph 1016.5mb 78f 75f
5:50am 6ft 10s 7s 9 13 mph 1016.1mb 78f 75f
4:50am 7ft 9s 7s 11 13 mph 1015.6mb 78f 75f
3:50am 7ft 10s 7s 11 13 mph 1015.5mb 78f 75f
2:50am 6.5ft 10s 7s 11 16 mph 1015.7mb 78f 75f
1:50am 6ft 9s 6s 13 16 mph 1016mb 78f 75f
12:50am 6ft 9s 6s 13 16 mph 1016mb 78f 75f